createdAt,value
2023-02-18T00:01:43.556Z,100124.66
2023-02-18T00:04:12.715Z,100115.02
2023-02-18T00:06:42.261Z,100113.78
2023-02-18T00:09:11.189Z,100106.87
2023-02-18T00:11:39.900Z,100098.23
2023-02-18T00:14:12.391Z,100087.58
2023-02-18T00:16:41.553Z,100082.39
2023-02-18T00:19:16.251Z,100074.66
2023-02-18T00:21:44.670Z,100068.63
2023-02-18T00:24:18.287Z,100060.73
2023-02-18T00:26:46.712Z,100050.04
2023-02-18T00:29:15.421Z,100045.39
2023-02-18T00:31:46.288Z,100038.16
2023-02-18T00:34:14.883Z,100030.77
2023-02-18T00:36:43.471Z,100017.59
2023-02-18T00:39:12.870Z,100005.73
2023-02-18T00:41:42.258Z,100000.72
2023-02-18T00:44:11.986Z,99990.09
2023-02-18T00:46:41.017Z,99978.95
2023-02-18T00:49:09.771Z,99968.45
2023-02-18T00:51:38.314Z,99959.84
2023-02-18T00:54:06.538Z,99951.75
2023-02-18T00:56:35.040Z,99941.63
2023-02-18T00:59:03.644Z,99935.26
2023-02-18T01:01:31.923Z,99930.09
2023-02-18T01:04:00.154Z,99920.96
2023-02-18T01:06:28.502Z,99913.20
2023-02-18T01:08:56.804Z,99909.41
2023-02-18T01:11:25.575Z,99899.96
2023-02-18T01:13:54.116Z,99895.32
2023-02-18T01:16:24.020Z,99888.07
2023-02-18T01:18:53.826Z,99882.88
2023-02-18T01:21:21.993Z,99867.55
2023-02-18T01:23:50.510Z,99859.98
2023-02-18T01:26:19.223Z,99854.64
2023-02-18T01:28:48.311Z,99843.80
2023-02-18T01:31:17.048Z,99834.30
2023-02-18T01:33:46.498Z,99822.73
2023-02-18T01:36:15.215Z,99816.18
2023-02-18T01:38:43.481Z,99808.95
2023-02-18T01:41:11.793Z,99791.88
2023-02-18T01:43:40.174Z,99787.23
2023-02-18T01:46:21.325Z,99781.54
2023-02-18T01:49:00.828Z,99772.21
2023-02-18T01:51:36.087Z,99763.75
2023-02-18T01:54:09.897Z,99759.93
2023-02-18T01:56:58.392Z,99750.09
2023-02-18T01:59:45.156Z,99743.20
2023-02-18T02:02:15.657Z,99735.42
2023-02-18T02:04:43.825Z,99728.52
2023-02-18T02:07:12.570Z,99720.23
2023-02-18T02:09:40.825Z,99714.21
2023-02-18T02:12:12.041Z,99707.33
2023-02-18T02:14:47.498Z,99702.34
2023-02-18T02:17:38.202Z,99698.02
2023-02-18T02:20:33.885Z,99687.30
2023-02-18T02:23:04.903Z,99683.98
2023-02-18T02:26:09.691Z,99682.08
2023-02-18T02:29:04.895Z,99678.81
2023-02-18T02:32:21.690Z,99675.04
2023-02-18T02:35:08.936Z,99664.36
2023-02-18T02:37:56.468Z,99649.41
2023-02-18T02:40:27.669Z,99640.48
2023-02-18T02:43:22.878Z,99634.85
2023-02-18T02:45:53.346Z,99622.86
2023-02-18T02:48:46.033Z,99621.02
2023-02-18T02:51:22.397Z,99612.00
2023-02-18T02:53:51.174Z,99606.36
2023-02-18T02:56:24.093Z,99601.60
2023-02-18T02:59:04.661Z,99596.46
2023-02-18T03:02:14.667Z,99591.83
2023-02-18T03:05:04.386Z,99582.74
2023-02-18T03:07:47.998Z,99583.98
2023-02-18T03:10:22.431Z,99575.23
2023-02-18T03:13:00.634Z,99566.47
2023-02-18T03:15:37.577Z,99562.14
2023-02-18T03:18:15.488Z,99559.90
2023-02-18T03:20:55.929Z,99554.58
2023-02-18T03:23:28.609Z,99549.39
2023-02-18T03:25:57.416Z,99547.33
2023-02-18T03:28:27.411Z,99534.60
2023-02-18T03:31:07.695Z,99538.18
2023-02-18T03:33:47.199Z,99531.27
2023-02-18T03:36:15.370Z,99527.64
2023-02-18T03:38:55.865Z,99519.70
2023-02-18T03:41:24.491Z,99511.41
2023-02-18T03:43:54.016Z,99503.48
2023-02-18T03:46:22.278Z,99502.09
2023-02-18T03:48:50.536Z,99496.23
2023-02-18T03:51:19.769Z,99485.34
2023-02-18T03:53:48.041Z,99476.21
2023-02-18T03:56:16.458Z,99474.30
2023-02-18T03:58:44.789Z,99461.38
2023-02-18T04:01:13.762Z,99462.55
2023-02-18T04:03:43.026Z,99450.81
2023-02-18T04:06:11.698Z,99439.08
2023-02-18T04:08:39.918Z,99430.13
2023-02-18T04:11:08.090Z,99422.74
2023-02-18T04:13:36.480Z,99422.56
2023-02-18T04:16:10.045Z,99415.84
2023-02-18T04:18:39.247Z,99415.66
2023-02-18T04:21:07.484Z,99405.86
2023-02-18T04:23:36.130Z,99405.29
2023-02-18T04:26:04.490Z,99399.26
2023-02-18T04:28:32.759Z,99394.91
2023-02-18T04:31:01.437Z,99393.31
2023-02-18T04:33:29.773Z,99381.77
2023-02-18T04:35:58.004Z,99375.02
2023-02-18T04:38:26.484Z,99373.09
2023-02-18T04:40:55.145Z,99367.73
2023-02-18T04:43:23.449Z,99360.63
2023-02-18T04:45:51.819Z,99352.40
2023-02-18T04:48:22.433Z,99351.15
2023-02-18T04:50:50.648Z,99343.56
2023-02-18T04:53:18.843Z,99342.16
2023-02-18T04:55:53.457Z,99335.39
2023-02-18T04:58:21.779Z,99331.94
2023-02-18T05:00:50.491Z,99327.05
2023-02-18T05:03:18.802Z,99323.59
2023-02-18T05:05:47.120Z,99317.89
2023-02-18T05:08:16.407Z,99311.83
2023-02-18T05:10:49.086Z,99311.60
2023-02-18T05:13:20.884Z,99308.60
2023-02-18T05:15:49.556Z,99298.25
2023-02-18T05:18:19.175Z,99300.27
2023-02-18T05:20:47.415Z,99301.89
2023-02-18T05:23:16.852Z,99293.55
2023-02-18T05:25:45.053Z,99281.41
2023-02-18T05:28:14.846Z,99278.07
2023-02-18T05:30:43.071Z,99255.98
2023-02-18T05:33:12.298Z,99241.47
2023-02-18T05:35:41.628Z,99258.77
2023-02-18T05:38:10.270Z,99257.64
2023-02-18T05:40:40.246Z,99261.03
2023-02-18T05:43:08.534Z,99257.18
2023-02-18T05:45:39.084Z,99248.98
2023-02-18T05:48:07.304Z,99243.61
2023-02-18T05:50:35.817Z,99242.17
2023-02-18T05:53:04.170Z,99236.77
2023-02-18T05:55:37.950Z,99235.67
2023-02-18T05:58:06.398Z,99236.61
2023-02-18T06:00:39.327Z,99233.42
2023-02-18T06:03:07.674Z,99215.94
2023-02-18T06:05:36.381Z,99212.72
2023-02-18T06:08:05.246Z,99209.34
2023-02-18T06:10:33.874Z,99201.21
2023-02-18T06:13:04.264Z,99197.09
2023-02-18T06:15:32.567Z,99196.22
2023-02-18T06:18:06.241Z,99197.89
2023-02-18T06:20:34.482Z,99200.79
2023-02-18T06:23:03.165Z,99202.36
2023-02-18T06:25:31.377Z,99200.51
2023-02-18T06:28:02.555Z,99197.95
2023-02-18T06:30:32.017Z,99192.14
2023-02-18T06:33:00.539Z,99190.10
2023-02-18T06:35:30.683Z,99193.02
2023-02-18T06:37:59.037Z,99186.41
2023-02-18T06:40:27.333Z,99188.98
2023-02-18T06:42:56.011Z,99185.90
2023-02-18T06:45:24.363Z,99188.98
2023-02-18T06:47:53.274Z,99186.03
2023-02-18T06:50:25.089Z,99179.09
2023-02-18T06:52:53.507Z,99192.78
2023-02-18T06:55:21.750Z,99196.72
2023-02-18T06:57:50.895Z,99181.15
2023-02-18T07:00:19.620Z,99176.91
2023-02-18T07:02:47.931Z,99174.83
2023-02-18T07:05:16.251Z,99178.45
2023-02-18T07:07:45.626Z,99172.91
2023-02-18T07:10:13.841Z,99167.86
2023-02-18T07:12:42.104Z,99163.05
2023-02-18T07:15:10.831Z,99167.34
2023-02-18T07:17:39.255Z,99163.70
2023-02-18T07:20:08.174Z,99161.31
2023-02-18T07:22:36.508Z,99162.74
2023-02-18T07:25:05.222Z,99157.91
2023-02-18T07:27:34.185Z,99157.11
2023-02-18T07:30:02.732Z,99163.98
2023-02-18T07:32:31.783Z,99160.35
2023-02-18T07:35:03.264Z,99181.95
2023-02-18T07:37:32.984Z,99189.31
2023-02-18T07:40:05.116Z,99190.84
2023-02-18T07:42:33.797Z,99191.11
2023-02-18T07:45:07.881Z,99191.36
2023-02-18T07:47:36.321Z,99189.66
2023-02-18T07:50:05.852Z,99195.15
2023-02-18T07:52:37.752Z,99194.32
2023-02-18T07:55:06.320Z,99188.00
2023-02-18T07:57:54.546Z,99185.29
2023-02-18T08:00:23.147Z,99185.88
2023-02-18T08:02:51.470Z,99184.64
2023-02-18T08:05:20.058Z,99180.61
2023-02-18T08:07:48.971Z,99179.42
2023-02-18T08:10:17.325Z,99168.08
2023-02-18T08:12:45.610Z,99164.42
2023-02-18T08:15:14.035Z,99155.81
2023-02-18T08:17:42.371Z,99156.55
2023-02-18T08:20:11.829Z,99156.23
2023-02-18T08:22:40.124Z,99153.79
2023-02-18T08:25:10.433Z,99147.59
2023-02-18T08:27:43.929Z,99146.73
2023-02-18T08:30:13.029Z,99144.09
2023-02-18T08:32:41.356Z,99149.26
2023-02-18T08:35:10.865Z,99152.74
2023-02-18T08:37:52.607Z,99159.95
2023-02-18T08:40:22.563Z,99161.79
2023-02-18T08:42:50.875Z,99157.98
2023-02-18T08:45:19.141Z,99169.20
2023-02-18T08:48:16.212Z,99171.60
2023-02-18T08:50:36.523Z,99175.07
2023-02-18T08:53:05.039Z,99171.92
2023-02-18T08:55:34.749Z,99180.06
2023-02-18T08:58:04.882Z,99176.21
2023-02-18T09:00:34.221Z,99177.59
2023-02-18T09:03:03.384Z,99178.96
2023-02-18T09:05:35.885Z,99174.21
2023-02-18T09:08:06.388Z,99181.38
2023-02-18T09:10:34.812Z,99181.05
2023-02-18T09:13:03.882Z,99182.92
2023-02-18T09:15:32.641Z,99181.05
2023-02-18T09:18:03.294Z,99184.83
2023-02-18T09:20:31.506Z,99181.52
2023-02-18T09:23:01.766Z,99178.83
2023-02-18T09:25:30.202Z,99181.04
2023-02-18T09:27:58.638Z,99179.43
2023-02-18T09:30:27.566Z,99176.77
2023-02-18T09:32:55.766Z,99171.01
2023-02-18T09:35:23.967Z,99170.67
2023-02-18T09:37:52.268Z,99176.96
2023-02-18T09:40:31.277Z,99175.58
2023-02-18T09:43:00.167Z,99172.12
2023-02-18T09:45:31.929Z,99169.84
2023-02-18T09:48:00.164Z,99169.20
2023-02-18T09:50:35.304Z,99171.21
2023-02-18T09:53:04.357Z,99169.34
2023-02-18T09:55:36.385Z,99172.21
2023-02-18T09:58:23.322Z,99173.47
2023-02-18T10:00:54.690Z,99173.46
2023-02-18T10:03:44.528Z,99171.65
2023-02-18T10:06:23.320Z,99170.02
2023-02-18T10:08:52.544Z,99167.34
2023-02-18T10:11:30.230Z,99172.44
2023-02-18T10:14:01.229Z,99169.98
2023-02-18T10:16:30.282Z,99164.34
2023-02-18T10:19:00.435Z,99168.25
2023-02-18T10:21:31.691Z,99167.69
2023-02-18T10:24:20.123Z,99166.19
2023-02-18T10:26:48.740Z,99167.48
2023-02-18T10:29:21.407Z,99168.55
2023-02-18T10:31:58.127Z,99163.66
2023-02-18T10:34:43.351Z,99165.50
2023-02-18T10:37:29.435Z,99165.05
2023-02-18T10:40:13.032Z,99165.60
2023-02-18T10:42:47.190Z,99169.90
2023-02-18T10:45:25.169Z,99172.39
2023-02-18T10:48:08.533Z,99171.92
2023-02-18T10:50:44.291Z,99175.61
2023-02-18T10:53:18.597Z,99176.45
2023-02-18T10:55:49.587Z,99172.27
2023-02-18T10:58:33.037Z,99172.94
2023-02-18T11:01:05.345Z,99168.65
2023-02-18T11:03:44.715Z,99165.42
2023-02-18T11:06:20.051Z,99165.00
2023-02-18T11:08:48.496Z,99171.33
2023-02-18T11:11:28.731Z,99168.34
2023-02-18T11:13:59.549Z,99160.95
2023-02-18T11:16:37.684Z,99171.63
2023-02-18T11:19:06.991Z,99163.64
2023-02-18T11:21:37.160Z,99155.14
2023-02-18T11:24:17.932Z,99153.15
2023-02-18T11:26:46.133Z,99150.81
2023-02-18T11:29:24.853Z,99152.59
2023-02-18T11:31:55.109Z,99150.82
2023-02-18T11:34:26.074Z,99149.12
2023-02-18T11:36:54.866Z,99147.52
2023-02-18T11:39:27.827Z,99150.21
2023-02-18T11:42:03.806Z,99148.56
2023-02-18T11:45:05.483Z,99152.90
2023-02-18T11:47:36.077Z,99147.44
2023-02-18T11:50:10.493Z,99152.33
2023-02-18T11:52:48.051Z,99154.69
2023-02-18T11:55:28.042Z,99156.75
2023-02-18T11:58:02.468Z,99154.14
2023-02-18T12:00:30.926Z,99147.81
2023-02-18T12:03:02.367Z,99150.33
2023-02-18T12:05:31.396Z,99156.52
2023-02-18T12:08:01.925Z,99154.55
2023-02-18T12:10:39.038Z,99153.84
2023-02-18T12:13:08.481Z,99159.77
2023-02-18T12:15:48.528Z,99157.05
2023-02-18T12:18:59.113Z,99153.15
2023-02-18T12:21:32.487Z,99151.59
2023-02-18T12:24:00.744Z,99153.33
2023-02-18T12:26:32.913Z,99157.12
2023-02-18T12:29:05.436Z,99162.73
2023-02-18T12:31:43.532Z,99159.45
2023-02-18T12:34:37.154Z,99159.97
2023-02-18T12:37:24.253Z,99165.94
2023-02-18T12:40:14.880Z,99170.89
2023-02-18T12:43:01.703Z,99171.54
2023-02-18T12:45:39.863Z,99164.27
2023-02-18T12:48:26.960Z,99168.97
2023-02-18T12:51:32.968Z,99171.80
2023-02-18T12:54:19.833Z,99176.80
2023-02-18T12:57:09.926Z,99180.48
2023-02-18T13:00:17.244Z,99175.78
2023-02-18T13:02:48.633Z,99175.56
2023-02-18T13:05:49.222Z,99172.77
2023-02-18T13:08:36.417Z,99182.70
2023-02-18T13:11:37.597Z,99184.67
2023-02-18T13:14:10.273Z,99191.97
2023-02-18T13:16:39.080Z,99193.30
2023-02-18T13:19:20.626Z,99197.71
2023-02-18T13:21:50.780Z,99203.38
2023-02-18T13:24:35.672Z,99203.48
2023-02-18T13:27:27.521Z,99204.30
2023-02-18T13:30:17.453Z,99205.66
2023-02-18T13:32:55.961Z,99212.10
2023-02-18T13:35:35.299Z,99214.96
2023-02-18T13:38:29.716Z,99216.33
2023-02-18T13:40:59.312Z,99220.66
2023-02-18T13:43:27.559Z,99222.95
2023-02-18T13:46:17.579Z,99225.61
2023-02-18T13:48:47.556Z,99234.66
2023-02-18T13:51:42.651Z,99236.61
2023-02-18T13:54:21.133Z,99238.77
2023-02-18T13:56:54.997Z,99247.69
2023-02-18T13:59:59.544Z,99254.84
2023-02-18T14:02:27.988Z,99249.92
2023-02-18T14:05:09.485Z,99259.98
2023-02-18T14:07:43.741Z,99255.80
2023-02-18T14:10:16.599Z,99258.85
2023-02-18T14:12:58.236Z,99258.48
2023-02-18T14:15:26.709Z,99256.77
2023-02-18T14:18:13.853Z,99255.36
2023-02-18T14:20:46.977Z,99257.48
2023-02-18T14:23:18.306Z,99256.94
2023-02-18T14:26:05.189Z,99265.06
2023-02-18T14:28:34.521Z,99266.71
2023-02-18T14:31:12.194Z,99266.20
2023-02-18T14:34:01.862Z,99268.80
2023-02-18T14:36:45.686Z,99266.90
2023-02-18T14:39:39.326Z,99266.40
2023-02-18T14:42:27.027Z,99266.29
2023-02-18T14:45:18.780Z,99272.73
2023-02-18T14:48:01.991Z,99271.86
2023-02-18T14:50:31.019Z,99273.75
2023-02-18T14:53:03.732Z,99272.10
2023-02-18T14:55:37.724Z,99273.42
2023-02-18T14:58:13.187Z,99272.82
2023-02-18T15:00:43.046Z,99273.68
2023-02-18T15:03:14.269Z,99270.17
2023-02-18T15:05:43.265Z,99271.14
2023-02-18T15:08:20.344Z,99270.36
2023-02-18T15:10:57.146Z,99269.25
2023-02-18T15:13:36.204Z,99263.30
2023-02-18T15:16:06.469Z,99261.63
2023-02-18T15:18:56.008Z,99263.23
2023-02-18T15:21:28.340Z,99269.38
2023-02-18T15:24:08.605Z,99264.54
2023-02-18T15:26:37.985Z,99269.44
2023-02-18T15:29:06.704Z,99266.39
2023-02-18T15:31:38.928Z,99264.34
2023-02-18T15:34:28.155Z,99265.73
2023-02-18T15:36:57.469Z,99272.38
2023-02-18T15:39:25.840Z,99279.64
2023-02-18T15:42:15.330Z,99281.05
2023-02-18T15:44:48.455Z,99288.88
2023-02-18T15:47:17.686Z,99292.00
2023-02-18T15:49:47.713Z,99293.94
2023-02-18T15:52:16.103Z,99298.98
2023-02-18T15:54:44.742Z,99297.16
2023-02-18T15:57:14.658Z,99291.86
2023-02-18T15:59:47.694Z,99295.57
2023-02-18T16:02:23.836Z,99299.98
2023-02-18T16:05:05.006Z,99299.17
2023-02-18T16:07:58.089Z,99306.02
2023-02-18T16:10:41.976Z,99305.40
2023-02-18T16:13:15.755Z,99300.15
2023-02-18T16:15:45.485Z,99305.41
2023-02-18T16:18:37.173Z,99306.91
2023-02-18T16:21:43.893Z,99308.72
2023-02-18T16:24:27.558Z,99312.67
2023-02-18T16:27:00.107Z,99314.70
2023-02-18T16:29:36.417Z,99320.31
2023-02-18T16:32:04.991Z,99324.08
2023-02-18T16:34:33.486Z,99325.70
2023-02-18T16:37:21.280Z,99329.94
2023-02-18T16:39:52.075Z,99328.79
2023-02-18T16:42:22.234Z,99334.75
2023-02-18T16:44:52.065Z,99334.96
2023-02-18T16:47:20.373Z,99332.09
2023-02-18T16:49:50.124Z,99333.88
2023-02-18T16:52:19.583Z,99334.73
2023-02-18T16:54:50.410Z,99336.02
2023-02-18T16:57:18.727Z,99337.27
2023-02-18T16:59:47.591Z,99335.58
2023-02-18T17:02:20.162Z,99334.58
2023-02-18T17:04:48.555Z,99334.09
2023-02-18T17:07:16.730Z,99338.31
2023-02-18T17:09:47.305Z,99338.72
2023-02-18T17:12:15.486Z,99341.13
2023-02-18T17:14:43.827Z,99342.57
2023-02-18T17:17:13.670Z,99348.52
2023-02-18T17:19:41.953Z,99345.48
2023-02-18T17:22:12.681Z,99344.21
2023-02-18T17:24:40.862Z,99344.14
2023-02-18T17:27:11.206Z,99345.78
2023-02-18T17:29:39.585Z,99343.48
2023-02-18T17:32:11.729Z,99345.84
2023-02-18T17:34:41.274Z,99344.36
2023-02-18T17:37:12.953Z,99345.97
2023-02-18T17:39:42.366Z,99345.34
2023-02-18T17:42:14.949Z,99342.10
2023-02-18T17:44:44.973Z,99341.13
2023-02-18T17:47:13.294Z,99342.60
2023-02-18T17:49:41.584Z,99339.52
2023-02-18T17:52:29.499Z,99344.88
2023-02-18T17:54:58.284Z,99341.88
2023-02-18T17:57:26.517Z,99344.44
2023-02-18T17:59:57.426Z,99345.26
2023-02-18T18:02:27.845Z,99346.52
2023-02-18T18:04:56.459Z,99343.80
2023-02-18T18:07:24.710Z,99344.08
2023-02-18T18:09:53.917Z,99341.98
2023-02-18T18:12:22.225Z,99343.54
2023-02-18T18:14:52.975Z,99339.92
2023-02-18T18:17:24.044Z,99341.50
2023-02-18T18:19:53.092Z,99340.49
2023-02-18T18:22:21.310Z,99339.84
2023-02-18T18:24:50.383Z,99337.13
2023-02-18T18:27:18.564Z,99339.77
2023-02-18T18:29:47.290Z,99340.04
2023-02-18T18:32:16.684Z,99340.43
2023-02-18T18:34:49.106Z,99342.94
2023-02-18T18:37:17.632Z,99344.73
2023-02-18T18:39:46.047Z,99340.61
2023-02-18T18:42:14.324Z,99344.80
2023-02-18T18:44:42.533Z,99345.70
2023-02-18T18:47:10.747Z,99347.98
2023-02-18T18:49:39.357Z,99350.78
2023-02-18T18:52:08.941Z,99348.44
2023-02-18T18:54:41.352Z,99339.48
2023-02-18T18:57:09.525Z,99344.53
2023-02-18T18:59:37.750Z,99341.23
2023-02-18T19:02:10.187Z,99339.54
2023-02-18T19:04:38.532Z,99336.26
2023-02-18T19:07:07.999Z,99336.58
2023-02-18T19:09:36.170Z,99341.45
2023-02-18T19:12:04.795Z,99340.25
2023-02-18T19:14:33.805Z,99345.29
2023-02-18T19:17:02.728Z,99341.29
2023-02-18T19:19:32.390Z,99344.23
2023-02-18T19:22:00.606Z,99344.08
2023-02-18T19:24:29.563Z,99345.48
2023-02-18T19:26:57.882Z,99342.04
2023-02-18T19:29:26.084Z,99343.71
2023-02-18T19:31:54.932Z,99339.93
2023-02-18T19:34:24.566Z,99340.80
2023-02-18T19:36:53.110Z,99340.84
2023-02-18T19:39:23.273Z,99338.94
2023-02-18T19:41:52.040Z,99336.31
2023-02-18T19:44:20.405Z,99335.45
2023-02-18T19:46:49.227Z,99331.16
2023-02-18T19:49:17.664Z,99332.86
2023-02-18T19:51:46.462Z,99330.64
2023-02-18T19:54:15.065Z,99329.09
2023-02-18T19:56:43.424Z,99324.09
2023-02-18T19:59:11.675Z,99322.88
2023-02-18T20:01:40.051Z,99325.77
2023-02-18T20:04:08.480Z,99323.52
2023-02-18T20:06:37.415Z,99319.42
2023-02-18T20:09:05.698Z,99318.73
2023-02-18T20:11:34.538Z,99311.14
2023-02-18T20:14:04.370Z,99311.99
2023-02-18T20:16:32.802Z,99307.00
2023-02-18T20:19:01.053Z,99301.28
2023-02-18T20:21:30.727Z,99302.84
2023-02-18T20:24:01.253Z,99298.35
2023-02-18T20:26:29.810Z,99300.62
2023-02-18T20:28:58.750Z,99300.45
2023-02-18T20:31:27.289Z,99302.52
2023-02-18T20:33:57.183Z,99304.80
2023-02-18T20:36:25.999Z,99306.85
2023-02-18T20:38:54.149Z,99306.19
2023-02-18T20:41:22.443Z,99308.80
2023-02-18T20:43:57.786Z,99311.09
2023-02-18T20:46:28.395Z,99315.77
2023-02-18T20:48:56.932Z,99315.69
2023-02-18T20:51:25.213Z,99314.70
2023-02-18T20:53:53.864Z,99312.66
2023-02-18T20:56:22.169Z,99314.59
2023-02-18T20:58:50.488Z,99313.58
2023-02-18T21:01:19.447Z,99316.09
2023-02-18T21:03:48.271Z,99313.36
2023-02-18T21:06:19.827Z,99313.98
2023-02-18T21:08:50.554Z,99316.27
2023-02-18T21:11:22.468Z,99319.61
2023-02-18T21:13:51.750Z,99320.36
2023-02-18T21:16:20.212Z,99319.89
2023-02-18T21:18:50.226Z,99319.97
2023-02-18T21:21:20.390Z,99319.33
2023-02-18T21:23:48.533Z,99319.38
2023-02-18T21:26:19.302Z,99313.92
2023-02-18T21:28:52.330Z,99313.43
2023-02-18T21:31:26.394Z,99316.55
2023-02-18T21:33:54.898Z,99312.95
2023-02-18T21:36:23.249Z,99311.41
2023-02-18T21:38:55.188Z,99312.65
2023-02-18T21:41:24.492Z,99318.02
2023-02-18T21:43:53.068Z,99321.00
2023-02-18T21:46:22.233Z,99321.03
2023-02-18T21:49:02.904Z,99317.98
2023-02-18T21:51:59.173Z,99316.31
2023-02-18T21:54:37.117Z,99323.42
2023-02-18T21:57:06.539Z,99325.16
2023-02-18T21:59:35.664Z,99323.95
2023-02-18T22:02:04.473Z,99327.08
2023-02-18T22:04:33.989Z,99330.41
2023-02-18T22:07:03.668Z,99334.05
2023-02-18T22:09:33.258Z,99334.80
2023-02-18T22:12:02.145Z,99337.76
2023-02-18T22:14:31.860Z,99338.98
2023-02-18T22:17:00.346Z,99337.61
2023-02-18T22:19:28.736Z,99336.77
2023-02-18T22:21:57.591Z,99340.23
2023-02-18T22:24:29.234Z,99342.36
2023-02-18T22:26:57.690Z,99342.41
2023-02-18T22:29:25.878Z,99351.09
2023-02-18T22:31:54.293Z,99348.73
2023-02-18T22:34:22.817Z,99349.65
2023-02-18T22:36:51.397Z,99350.17
2023-02-18T22:39:19.895Z,99351.23
2023-02-18T22:41:49.013Z,99347.98
2023-02-18T22:44:17.468Z,99345.09
2023-02-18T22:46:46.070Z,99339.61
2023-02-18T22:49:14.414Z,99338.11
2023-02-18T22:51:44.162Z,99340.77
2023-02-18T22:54:14.861Z,99350.83
2023-02-18T22:56:43.425Z,99351.20
2023-02-18T22:59:12.675Z,99347.31
2023-02-18T23:01:42.487Z,99348.71
2023-02-18T23:04:12.309Z,99342.00
2023-02-18T23:06:41.924Z,99349.82
2023-02-18T23:09:18.239Z,99354.70
2023-02-18T23:11:50.033Z,99358.54
2023-02-18T23:14:23.000Z,99357.15
2023-02-18T23:17:14.880Z,99358.91
2023-02-18T23:19:47.910Z,99359.67
2023-02-18T23:22:19.810Z,99366.98
2023-02-18T23:24:49.605Z,99366.64
2023-02-18T23:27:18.009Z,99367.02
2023-02-18T23:29:46.515Z,99363.77
2023-02-18T23:32:14.704Z,99361.39
2023-02-18T23:34:43.592Z,99358.50
2023-02-18T23:37:11.828Z,99354.96
2023-02-18T23:39:40.487Z,99356.77
2023-02-18T23:42:10.785Z,99366.27
2023-02-18T23:44:40.825Z,99369.23
2023-02-18T23:47:08.994Z,99362.48
2023-02-18T23:49:37.876Z,99368.34
2023-02-18T23:52:06.617Z,99367.27
2023-02-18T23:54:35.248Z,99369.22
2023-02-18T23:57:03.767Z,99367.79
2023-02-18T23:59:33.152Z,99367.98
